Time;durP1;ratioP1;P1;durP2;ratioP2;P2;SDS_P1;SDS_P2;PMS_P1;PMS_P2;Temp;Humidity;BMP_temperature;BMP_pressure;BME280_temperature;BME280_humidity;BME280_pressure;Samples;Min_cycle;Max_cycle;Signal;HPM_P1;HPM_P2
2023/10/18 00:01:22;;;;;;;1.95;1.13;;;;;;;;;;5028076;28;20112;-86
2023/10/18 00:03:48;;;;;;;1.67;1.08;;;;;;;;;;5035671;28;20079;-84
2023/10/18 00:06:21;;;;;;;2.67;1.17;;;;;;;;;;5035925;28;20018;-86
2023/10/18 00:08:47;;;;;;;2.58;0.70;;;;;;;;;;5018246;28;20456;-84
2023/10/18 00:11:13;;;;;;;2.20;0.95;;;;;;;;;;5017832;28;20355;-85
2023/10/18 00:13:39;;;;;;;2.65;0.70;;;;;;;;;;5034355;28;20022;-85
2023/10/18 00:16:06;;;;;;;2.67;0.82;;;;;;;;;;5034371;28;20121;-86
2023/10/18 00:18:33;;;;;;;5.40;1.10;;;;;;;;;;5021631;28;20033;-86
2023/10/18 00:21:00;;;;;;;2.55;0.90;;;;;;;;;;5034846;28;20115;-85
2023/10/18 00:23:27;;;;;;;1.75;0.90;;;;;;;;;;5029881;28;20029;-86
2023/10/18 00:25:54;;;;;;;1.50;0.77;;;;;;;;;;5024898;28;20454;-85
2023/10/18 00:28:20;;;;;;;1.60;0.70;;;;;;;;;;5004442;28;20029;-86
2023/10/18 00:30:49;;;;;;;2.60;0.88;;;;;;;;;;5017855;28;20490;-86
2023/10/18 00:33:17;;;;;;;5.38;1.20;;;;;;;;;;5018213;28;20490;-86
2023/10/18 00:35:44;;;;;;;3.33;0.90;;;;;;;;;;5037308;28;20453;-86
2023/10/18 00:38:14;;;;;;;1.17;0.88;;;;;;;;;;5049737;28;20025;-84
2023/10/18 00:40:40;;;;;;;1.95;1.38;;;;;;;;;;5044621;28;20033;-85
2023/10/18 00:43:14;;;;;;;1.25;0.60;;;;;;;;;;5035375;28;20100;-86
2023/10/18 00:45:43;;;;;;;6.03;1.10;;;;;;;;;;5028524;28;20088;-86
2023/10/18 00:48:11;;;;;;;1.25;0.80;;;;;;;;;;5029961;28;20060;-84
2023/10/18 00:50:41;;;;;;;;;;;;;;;;;;5036355;28;20045;-83
2023/10/18 00:53:08;;;;;;;2.47;0.90;;;;;;;;;;5055787;28;19909;-84
2023/10/18 00:55:34;;;;;;;1.08;0.80;;;;;;;;;;5050223;28;20112;-83
2023/10/18 00:58:05;;;;;;;1.85;0.90;;;;;;;;;;5034741;28;20032;-83
2023/10/18 01:00:32;;;;;;;2.03;1.02;;;;;;;;;;5034244;28;20069;-83
2023/10/18 01:02:59;;;;;;;2.72;1.10;;;;;;;;;;5034311;28;20017;-84
2023/10/18 01:05:25;;;;;;;2.70;1.00;;;;;;;;;;5016258;28;20026;-84
2023/10/18 01:07:53;;;;;;;2.58;1.15;;;;;;;;;;5034388;28;20026;-85
2023/10/18 01:10:23;;;;;;;2.67;0.80;;;;;;;;;;5035026;28;20031;-85
2023/10/18 01:12:52;;;;;;;2.65;1.23;;;;;;;;;;5044969;28;20024;-83
2023/10/18 01:15:19;;;;;;;5.25;1.20;;;;;;;;;;5025119;28;20077;-84
2023/10/18 01:17:47;;;;;;;1.58;0.80;;;;;;;;;;5024798;28;20386;-84
2023/10/18 01:22:58;;;;;;;1.38;0.70;;;;;;;;;;5034021;28;20360;-85
2023/10/18 01:25:24;;;;;;;3.03;1.00;;;;;;;;;;5009250;28;20422;-85
2023/10/18 01:27:51;;;;;;;2.88;0.90;;;;;;;;;;5015826;28;20079;-84
2023/10/18 01:30:19;;;;;;;2.37;0.70;;;;;;;;;;5016683;28;20108;-85
2023/10/18 01:32:45;;;;;;;2.28;1.05;;;;;;;;;;5016648;28;20628;-83
2023/10/18 01:35:13;;;;;;;1.88;0.88;;;;;;;;;;5005843;28;20017;-85
2023/10/18 01:37:39;;;;;;;;;;;;;;;;;;5035383;28;20022;-84
2023/10/18 01:40:41;;;;;;;1.48;0.70;;;;;;;;;;5019982;28;19921;-85
2023/10/18 01:43:07;;;;;;;3.65;0.98;;;;;;;;;;5024441;28;20405;-85
2023/10/18 01:45:37;;;;;;;2.20;0.60;;;;;;;;;;5010184;28;20073;-86
2023/10/18 01:48:09;;;;;;;1.70;0.80;;;;;;;;;;5034042;28;20021;-86
2023/10/18 01:50:36;;;;;;;2.30;0.73;;;;;;;;;;5030159;28;20097;-85
2023/10/18 01:53:03;;;;;;;1.50;0.77;;;;;;;;;;5012043;28;20069;-85
2023/10/18 01:55:31;;;;;;;1.60;1.00;;;;;;;;;;5047669;28;20028;-87
2023/10/18 01:58:00;;;;;;;0.80;0.70;;;;;;;;;;5015559;28;20029;-85
2023/10/18 02:00:34;;;;;;;0.57;0.50;;;;;;;;;;5017042;28;20033;-85
2023/10/18 02:03:00;;;;;;;1.90;1.00;;;;;;;;;;5007331;28;20061;-86
2023/10/18 02:05:27;;;;;;;2.17;1.10;;;;;;;;;;5015686;28;20087;-87
2023/10/18 02:07:55;;;;;;;4.23;0.80;;;;;;;;;;5033883;28;20029;-87
2023/10/18 02:10:25;;;;;;;2.17;1.00;;;;;;;;;;5032223;28;20025;-85
2023/10/18 02:12:52;;;;;;;3.22;1.45;;;;;;;;;;4999366;28;20030;-85
2023/10/18 02:15:18;;;;;;;5.93;1.42;;;;;;;;;;5047010;28;20063;-85
2023/10/18 02:17:46;;;;;;;1.27;1.10;;;;;;;;;;5033074;28;20046;-85
2023/10/18 02:20:25;;;;;;;1.58;0.68;;;;;;;;;;5033074;28;20044;-86
2023/10/18 02:22:53;;;;;;;3.03;1.08;;;;;;;;;;5014759;28;20025;-87
2023/10/18 02:28:08;;;;;;;2.10;1.00;;;;;;;;;;5023058;28;20064;-85
2023/10/18 02:30:38;;;;;;;1.88;0.75;;;;;;;;;;5032798;28;20033;-84
2023/10/18 02:33:05;;;;;;;1.08;0.82;;;;;;;;;;5032983;28;20108;-85
2023/10/18 02:35:33;;;;;;;4.32;1.20;;;;;;;;;;5017980;28;20033;-85
2023/10/18 02:38:07;;;;;;;2.88;1.13;;;;;;;;;;5033550;28;20379;-86
2023/10/18 02:40:38;;;;;;;1.27;0.90;;;;;;;;;;5033811;28;20036;-86
2023/10/18 02:43:08;;;;;;;1.35;0.98;;;;;;;;;;5009058;28;20482;-85
2023/10/18 02:45:34;;;;;;;3.67;1.02;;;;;;;;;;5024061;28;20029;-84
2023/10/18 02:48:00;;;;;;;3.78;1.27;;;;;;;;;;5051675;28;20113;-83
2023/10/18 02:50:27;;;;;;;2.97;1.40;;;;;;;;;;5023276;28;20033;-83
2023/10/18 02:52:53;;;;;;;2.95;1.15;;;;;;;;;;5034011;28;20085;-84
2023/10/18 02:55:19;;;;;;;1.67;1.33;;;;;;;;;;5017191;28;20098;-84
2023/10/18 02:57:49;;;;;;;2.90;0.90;;;;;;;;;;5039208;28;20017;-84
2023/10/18 03:00:19;;;;;;;3.72;1.15;;;;;;;;;;5040578;28;20033;-84
2023/10/18 03:02:46;;;;;;;0.98;0.75;;;;;;;;;;5015980;28;20377;-85
2023/10/18 03:05:12;;;;;;;2.50;0.90;;;;;;;;;;5032775;28;20081;-84
2023/10/18 03:07:41;;;;;;;1.17;0.80;;;;;;;;;;5039385;28;20505;-84
2023/10/18 03:10:19;;;;;;;3.33;1.17;;;;;;;;;;5021031;28;20060;-84
2023/10/18 03:12:45;;;;;;;3.50;1.10;;;;;;;;;;5020329;28;20542;-83
2023/10/18 03:15:17;;;;;;;1.77;0.88;;;;;;;;;;5032417;28;20057;-84
2023/10/18 03:17:43;;;;;;;2.80;0.90;;;;;;;;;;5015076;28;20376;-84
2023/10/18 03:20:31;;;;;;;2.97;0.90;;;;;;;;;;5032408;28;20034;-85
2023/10/18 03:22:56;;;;;;;3.27;1.23;;;;;;;;;;5019587;28;20050;-83
2023/10/18 03:25:30;;;;;;;3.53;1.00;;;;;;;;;;5046316;28;20036;-85
2023/10/18 03:28:04;;;;;;;3.35;0.88;;;;;;;;;;5015288;28;20025;-83
2023/10/18 03:30:46;;;;;;;3.03;1.60;;;;;;;;;;5006184;28;20030;-83
2023/10/18 03:33:12;;;;;;;2.22;1.10;;;;;;;;;;5030291;28;20014;-84
2023/10/18 03:35:43;;;;;;;1.60;0.73;;;;;;;;;;5032113;28;20057;-84
2023/10/18 03:38:21;;;;;;;3.72;1.08;;;;;;;;;;5032034;28;20056;-87
2023/10/18 03:40:57;;;;;;;2.50;1.90;;;;;;;;;;5014752;28;20458;-84
2023/10/18 03:43:26;;;;;;;5.53;1.52;;;;;;;;;;5011199;28;20032;-86
2023/10/18 03:48:55;;;;;;;2.85;2.00;;;;;;;;;;4965180;28;20524;-86
2023/10/18 03:51:24;;;;;;;5.65;1.85;;;;;;;;;;4992877;28;20121;-87
2023/10/18 03:53:55;;;;;;;2.05;1.60;;;;;;;;;;5032919;28;20048;-86
2023/10/18 03:56:25;;;;;;;2.38;0.88;;;;;;;;;;5015110;28;20033;-85
2023/10/18 03:59:00;;;;;;;3.80;1.65;;;;;;;;;;5052685;28;20036;-85
2023/10/18 04:01:28;;;;;;;4.20;1.58;;;;;;;;;;5028843;28;20044;-85
2023/10/18 04:03:56;;;;;;;1.77;1.23;;;;;;;;;;5046859;28;20018;-85
2023/10/18 04:06:28;;;;;;;3.42;1.48;;;;;;;;;;5025811;28;20394;-85
2023/10/18 04:08:58;;;;;;;4.32;1.88;;;;;;;;;;5022474;28;20021;-87
2023/10/18 04:11:27;;;;;;;2.65;1.40;;;;;;;;;;5063634;28;20080;-86
2023/10/18 04:13:53;;;;;;;3.63;1.40;;;;;;;;;;5039936;28;20025;-87
2023/10/18 04:16:26;;;;;;;2.42;1.48;;;;;;;;;;5032386;28;20021;-89
2023/10/18 04:18:52;;;;;;;2.13;1.40;;;;;;;;;;5030490;28;20033;-87
2023/10/18 04:21:25;;;;;;;2.28;1.27;;;;;;;;;;5008136;28;20040;-86
2023/10/18 04:23:54;;;;;;;2.28;1.50;;;;;;;;;;5036238;28;20124;-86
2023/10/18 04:26:21;;;;;;;3.17;2.03;;;;;;;;;;5016085;28;20080;-87
2023/10/18 04:28:48;;;;;;;2.75;1.65;;;;;;;;;;5029500;28;20382;-87
2023/10/18 04:31:14;;;;;;;;;;;;;;;;;;5026197;28;20029;-86
2023/10/18 04:33:42;;;;;;;3.33;1.73;;;;;;;;;;5022173;28;19916;-86
2023/10/18 04:36:10;;;;;;;4.50;1.60;;;;;;;;;;5019367;28;20067;-88
2023/10/18 04:38:43;;;;;;;2.47;1.17;;;;;;;;;;5036947;28;20020;-87
2023/10/18 04:41:10;;;;;;;4.97;2.25;;;;;;;;;;5020792;28;20026;-84
2023/10/18 04:43:37;;;;;;;4.75;1.85;;;;;;;;;;5002575;28;20022;-84
2023/10/18 04:51:27;;;;;;;3.50;1.35;;;;;;;;;;5014767;28;20038;-85
2023/10/18 04:54:01;;;;;;;2.22;1.70;;;;;;;;;;4997188;28;20018;-85
2023/10/18 04:56:42;;;;;;;4.85;1.77;;;;;;;;;;4997195;28;20034;-84
2023/10/18 04:59:26;;;;;;;4.45;2.03;;;;;;;;;;5001092;28;20706;-84
2023/10/18 05:04:20;;;;;;;6.03;1.80;;;;;;;;;;5014870;28;20022;-85
2023/10/18 05:06:53;;;;;;;3.58;1.60;;;;;;;;;;5014842;28;20050;-85
2023/10/18 05:09:29;;;;;;;4.82;2.25;;;;;;;;;;5017863;28;20042;-87
2023/10/18 05:11:55;;;;;;;6.20;2.33;;;;;;;;;;5016971;28;20048;-88
2023/10/18 05:14:35;;;;;;;3.75;2.05;;;;;;;;;;4999638;28;20053;-89
2023/10/18 05:17:17;;;;;;;5.75;2.15;;;;;;;;;;5017917;28;20022;-86
2023/10/18 05:19:44;;;;;;;3.95;1.85;;;;;;;;;;5037999;28;20036;-86
2023/10/18 05:22:16;;;;;;;2.78;2.08;;;;;;;;;;5025818;28;20056;-87
2023/10/18 05:24:43;;;;;;;6.00;2.70;;;;;;;;;;5019632;28;20030;-87
2023/10/18 05:27:24;;;;;;;7.43;3.72;;;;;;;;;;5001259;28;20030;-84
2023/10/18 05:29:55;;;;;;;6.05;2.25;;;;;;;;;;5053624;28;20028;-88
2023/10/18 05:37:50;;;;;;;3.75;2.00;;;;;;;;;;5046065;28;20091;-88
2023/10/18 05:43:03;;;;;;;5.63;2.42;;;;;;;;;;5020484;28;20036;-88
2023/10/18 05:45:33;;;;;;;5.03;2.20;;;;;;;;;;5016970;28;20470;-87
2023/10/18 05:48:03;;;;;;;3.95;1.90;;;;;;;;;;5031721;28;20458;-88
2023/10/18 05:50:35;;;;;;;2.85;1.88;;;;;;;;;;5003669;28;20394;-87
2023/10/18 05:53:11;;;;;;;4.22;1.80;;;;;;;;;;5018774;28;20040;-87
2023/10/18 05:55:38;;;;;;;3.60;1.63;;;;;;;;;;5037794;28;20081;-87
2023/10/18 05:58:07;;;;;;;2.20;1.58;;;;;;;;;;5055256;28;20072;-87
2023/10/18 06:00:36;;;;;;;2.25;1.65;;;;;;;;;;5034785;28;20061;-87
2023/10/18 06:03:03;;;;;;;3.67;1.58;;;;;;;;;;5013014;28;20479;-88
2023/10/18 06:05:35;;;;;;;4.70;1.90;;;;;;;;;;5024050;28;20033;-88
2023/10/18 06:08:01;;;;;;;4.82;2.15;;;;;;;;;;5002156;28;20390;-87
2023/10/18 06:10:28;;;;;;;2.92;1.50;;;;;;;;;;5019117;28;20029;-83
2023/10/18 06:13:05;;;;;;;9.18;2.38;;;;;;;;;;5014030;28;20714;-85
2023/10/18 06:15:44;;;;;;;5.13;1.48;;;;;;;;;;4995615;28;20064;-85
2023/10/18 06:18:17;;;;;;;3.95;1.70;;;;;;;;;;5013231;28;20029;-84
2023/10/18 06:20:44;;;;;;;4.47;2.45;;;;;;;;;;5014281;28;20041;-88
2023/10/18 06:25:57;;;;;;;4.88;2.03;;;;;;;;;;5017197;28;19905;-87
2023/10/18 06:28:25;;;;;;;3.42;1.92;;;;;;;;;;5014746;28;20033;-90
2023/10/18 06:30:56;;;;;;;6.55;2.20;;;;;;;;;;5030226;28;20390;-90
2023/10/18 06:33:23;;;;;;;2.80;1.65;;;;;;;;;;5029920;28;20022;-89
2023/10/18 06:35:52;;;;;;;2.95;2.08;;;;;;;;;;5008476;28;20080;-90
2023/10/18 06:38:22;;;;;;;2.95;1.90;;;;;;;;;;5027666;28;20029;-89
2023/10/18 06:40:53;;;;;;;1.55;1.45;;;;;;;;;;5023910;28;20045;-89
2023/10/18 06:43:20;;;;;;;3.15;2.08;;;;;;;;;;5012849;28;20079;-91
2023/10/18 06:45:48;;;;;;;4.30;1.42;;;;;;;;;;5046385;28;20028;-87
2023/10/18 06:48:15;;;;;;;2.47;1.70;;;;;;;;;;5041626;28;20013;-90
2023/10/18 06:50:46;;;;;;;5.28;1.92;;;;;;;;;;5034809;28;20379;-91
2023/10/18 06:53:12;;;;;;;3.30;1.50;;;;;;;;;;5048418;28;20116;-88
2023/10/18 06:58:41;;;;;;;3.30;1.40;;;;;;;;;;5031888;28;20036;-89
2023/10/18 07:04:18;;;;;;;1.83;1.05;;;;;;;;;;5002385;28;20038;-87
2023/10/18 07:06:44;;;;;;;4.00;1.42;;;;;;;;;;4990625;28;20042;-88
2023/10/18 07:09:24;;;;;;;5.07;1.80;;;;;;;;;;4998977;28;20157;-89
2023/10/18 07:11:57;;;;;;;7.45;1.60;;;;;;;;;;5005859;28;20042;-89
2023/10/18 07:14:24;;;;;;;2.30;1.50;;;;;;;;;;4998339;28;20078;-89
2023/10/18 07:16:54;;;;;;;1.85;1.30;;;;;;;;;;5006812;28;20034;-89
2023/10/18 07:19:25;;;;;;;3.65;1.35;;;;;;;;;;5008912;28;20042;-90
2023/10/18 07:21:52;;;;;;;4.55;2.33;;;;;;;;;;5000533;28;20094;-89
2023/10/18 07:24:18;;;;;;;6.22;2.53;;;;;;;;;;4979331;28;20030;-89
2023/10/18 07:27:04;;;;;;;4.72;1.92;;;;;;;;;;5001269;28;20075;-89
2023/10/18 07:29:32;;;;;;;10.18;3.35;;;;;;;;;;4994272;28;20038;-88
2023/10/18 07:31:59;;;;;;;2.40;1.92;;;;;;;;;;5000612;28;20041;-90
2023/10/18 07:34:32;;;;;;;;;;;;;;;;;;5000414;28;20073;-90
2023/10/18 07:37:00;;;;;;;3.78;2.00;;;;;;;;;;4987024;28;20008;-90
2023/10/18 07:39:26;;;;;;;6.05;2.95;;;;;;;;;;5015573;28;20036;-89
2023/10/18 07:41:53;;;;;;;4.85;3.10;;;;;;;;;;5031882;28;20032;-91
2023/10/18 07:44:20;;;;;;;4.93;2.38;;;;;;;;;;5031144;28;20099;-90
2023/10/18 07:46:46;;;;;;;4.20;1.63;;;;;;;;;;5016862;28;20475;-89
2023/10/18 07:49:14;;;;;;;2.95;1.85;;;;;;;;;;5034696;28;20028;-89
2023/10/18 07:51:48;;;;;;;3.00;2.15;;;;;;;;;;5003265;28;20021;-90
2023/10/18 07:54:15;;;;;;;11.80;4.43;;;;;;;;;;4998083;28;20113;-91
2023/10/18 07:56:50;;;;;;;18.70;5.53;;;;;;;;;;5034233;28;20080;-90
2023/10/18 07:59:32;;;;;;;7.97;3.05;;;;;;;;;;5031274;28;20038;-90
2023/10/18 08:04:47;;;;;;;12.23;3.47;;;;;;;;;;5039797;28;20425;-90
2023/10/18 08:07:23;;;;;;;23.35;5.03;;;;;;;;;;5039301;28;20024;-90
2023/10/18 08:09:54;;;;;;;4.07;2.53;;;;;;;;;;5018175;28;20094;-90
2023/10/18 08:14:50;;;;;;;4.97;2.50;;;;;;;;;;5041755;28;20041;-90
2023/10/18 08:22:47;;;;;;;30.00;5.07;;;;;;;;;;5039261;28;20040;-90
2023/10/18 08:25:24;;;;;;;5.22;3.15;;;;;;;;;;5024633;28;20041;-89
2023/10/18 08:27:50;;;;;;;6.63;2.42;;;;;;;;;;5021539;28;20088;-89
2023/10/18 08:33:10;;;;;;;3.80;1.98;;;;;;;;;;4998047;28;20077;-90
2023/10/18 08:35:36;;;;;;;4.82;1.90;;;;;;;;;;5015982;28;20359;-89
2023/10/18 08:38:02;;;;;;;5.65;2.17;;;;;;;;;;5052379;28;20048;-88
2023/10/18 08:43:06;;;;;;;2.30;1.65;;;;;;;;;;5018557;28;20045;-88
2023/10/18 08:45:48;;;;;;;6.65;2.10;;;;;;;;;;5037374;28;20025;-90
2023/10/18 08:48:27;;;;;;;10.98;3.88;;;;;;;;;;5037494;28;20026;-90
2023/10/18 08:50:55;;;;;;;4.93;2.42;;;;;;;;;;5037841;28;20029;-90
2023/10/18 08:53:22;;;;;;;10.50;2.80;;;;;;;;;;5007706;28;20034;-89
2023/10/18 08:55:53;;;;;;;3.72;1.63;;;;;;;;;;5021649;28;20025;-87
2023/10/18 08:58:19;;;;;;;2.50;1.80;;;;;;;;;;5023961;28;20037;-89
2023/10/18 09:03:14;;;;;;;3.92;1.67;;;;;;;;;;5051913;28;20033;-89
2023/10/18 09:05:41;;;;;;;6.88;2.30;;;;;;;;;;5037004;28;20501;-89
2023/10/18 09:08:19;;;;;;;6.97;2.38;;;;;;;;;;5017795;28;20025;-89
2023/10/18 09:10:49;;;;;;;2.83;1.75;;;;;;;;;;5009085;28;20035;-89
2023/10/18 09:18:41;;;;;;;2.58;1.70;;;;;;;;;;4991145;28;20405;-88
2023/10/18 09:21:09;;;;;;;6.00;1.75;;;;;;;;;;5036286;28;20056;-89
2023/10/18 09:23:35;;;;;;;8.55;3.53;;;;;;;;;;5018578;28;20021;-89
2023/10/18 09:28:35;;;;;;;7.33;3.10;;;;;;;;;;5044253;28;20025;-88
2023/10/18 09:31:09;;;;;;;3.60;2.10;;;;;;;;;;5029370;28;20047;-89
2023/10/18 09:33:39;;;;;;;4.03;2.17;;;;;;;;;;5038452;28;20025;-89
2023/10/18 09:36:25;;;;;;;2.75;1.75;;;;;;;;;;5039441;28;20022;-92
2023/10/18 09:38:55;;;;;;;6.40;3.15;;;;;;;;;;5024040;28;20386;-88
2023/10/18 09:41:21;;;;;;;5.50;2.78;;;;;;;;;;5019734;28;20036;-88
2023/10/18 09:43:48;;;;;;;2.17;1.88;;;;;;;;;;5019731;28;20037;-89
2023/10/18 09:46:19;;;;;;;3.95;1.90;;;;;;;;;;5018356;28;20029;-90
2023/10/18 09:52:11;;;;;;;4.93;1.75;;;;;;;;;;5033682;28;20024;-89
2023/10/18 09:54:42;;;;;;;5.32;2.00;;;;;;;;;;5027602;28;20033;-88
2023/10/18 09:57:09;;;;;;;3.63;1.92;;;;;;;;;;5021161;28;20018;-91
2023/10/18 09:59:37;;;;;;;6.35;2.60;;;;;;;;;;5029184;28;20521;-92
2023/10/18 10:02:15;;;;;;;6.25;2.28;;;;;;;;;;5022781;28;20021;-89
2023/10/18 10:04:43;;;;;;;4.85;2.85;;;;;;;;;;5036239;28;20029;-89
2023/10/18 10:07:54;;;;;;;5.72;2.50;;;;;;;;;;5002103;28;20029;-89
2023/10/18 10:10:08;;;;;;;7.93;2.42;;;;;;;;;;5023877;28;20097;-88
2023/10/18 10:12:34;;;;;;;3.88;1.95;;;;;;;;;;5051893;28;20053;-88
2023/10/18 10:15:01;;;;;;;3.05;2.20;;;;;;;;;;5039551;28;20136;-90
2023/10/18 10:17:29;;;;;;;4.70;2.35;;;;;;;;;;5035915;28;20378;-89
2023/10/18 10:19:58;;;;;;;4.10;2.08;;;;;;;;;;5045499;28;20078;-89
2023/10/18 10:22:25;;;;;;;3.47;2.20;;;;;;;;;;5023747;28;20052;-90
2023/10/18 10:25:00;;;;;;;3.08;2.10;;;;;;;;;;5016703;28;20493;-89
2023/10/18 10:27:27;;;;;;;4.68;2.78;;;;;;;;;;5009243;28;20054;-90
2023/10/18 10:32:54;;;;;;;8.43;4.13;;;;;;;;;;5021553;28;20145;-89
2023/10/18 10:35:28;;;;;;;5.80;2.55;;;;;;;;;;5017823;28;20033;-90
2023/10/18 10:37:55;;;;;;;3.97;2.17;;;;;;;;;;5038723;28;20018;-90
2023/10/18 10:43:01;;;;;;;3.30;1.80;;;;;;;;;;5036499;28;20085;-86
2023/10/18 10:48:18;;;;;;;6.32;3.08;;;;;;;;;;5039899;28;20060;-89
2023/10/18 10:50:59;;;;;;;4.28;2.50;;;;;;;;;;5023638;28;20104;-88
2023/10/18 10:53:32;;;;;;;4.07;2.20;;;;;;;;;;5020565;28;20065;-90
2023/10/18 10:56:06;;;;;;;2.63;1.73;;;;;;;;;;5032290;28;20057;-89
2023/10/18 10:58:38;;;;;;;7.88;3.05;;;;;;;;;;5017855;28;20073;-90
2023/10/18 11:01:05;;;;;;;5.80;2.47;;;;;;;;;;5034932;28;20036;-89
2023/10/18 11:03:32;;;;;;;6.07;2.60;;;;;;;;;;5014138;28;20025;-90
2023/10/18 11:05:59;;;;;;;5.68;3.60;;;;;;;;;;5034547;28;20021;-90
2023/10/18 11:08:29;;;;;;;7.65;3.97;;;;;;;;;;5031162;28;20483;-89
2023/10/18 11:10:57;;;;;;;9.40;3.65;;;;;;;;;;5013115;28;20027;-88
2023/10/18 11:13:25;;;;;;;6.45;2.97;;;;;;;;;;5030721;28;20128;-89
2023/10/18 11:15:52;;;;;;;5.28;2.58;;;;;;;;;;5044056;28;20103;-89
2023/10/18 11:18:22;;;;;;;3.72;2.65;;;;;;;;;;5055414;28;20033;-88
2023/10/18 11:20:58;;;;;;;5.18;2.47;;;;;;;;;;5054111;28;20062;-89
2023/10/18 11:23:29;;;;;;;4.40;2.75;;;;;;;;;;5045408;28;20403;-90
2023/10/18 11:25:56;;;;;;;5.72;3.00;;;;;;;;;;5035421;28;20102;-89
2023/10/18 11:28:30;;;;;;;5.55;2.63;;;;;;;;;;5012910;28;20057;-89
2023/10/18 11:30:57;;;;;;;4.63;2.22;;;;;;;;;;5021852;28;20057;-88
2023/10/18 11:33:46;;;;;;;5.07;2.10;;;;;;;;;;5037305;28;20033;-90
2023/10/18 11:36:17;;;;;;;6.88;2.83;;;;;;;;;;5035258;28;20488;-89
2023/10/18 11:39:07;;;;;;;5.07;2.35;;;;;;;;;;5066189;28;20032;-89
2023/10/18 11:41:34;;;;;;;5.80;3.10;;;;;;;;;;5063047;28;20041;-90
2023/10/18 11:44:01;;;;;;;5.53;2.80;;;;;;;;;;5051479;28;20385;-90
2023/10/18 11:46:27;;;;;;;6.47;3.83;;;;;;;;;;5023515;28;20022;-89
2023/10/18 11:48:57;;;;;;;6.00;2.10;;;;;;;;;;5022261;28;20028;-88
2023/10/18 11:51:23;;;;;;;3.47;2.50;;;;;;;;;;5021069;28;20022;-90
2023/10/18 11:53:52;;;;;;;3.83;2.75;;;;;;;;;;5024851;28;20093;-90
2023/10/18 11:56:19;;;;;;;7.15;3.10;;;;;;;;;;5041029;28;20505;-89
2023/10/18 11:59:01;;;;;;;3.22;2.25;;;;;;;;;;5020704;28;20555;-90
2023/10/18 12:01:33;;;;;;;16.45;7.63;;;;;;;;;;5050852;28;20047;-89
2023/10/18 12:03:59;;;;;;;3.95;2.80;;;;;;;;;;5041812;28;20312;-90
2023/10/18 12:06:26;;;;;;;5.97;3.08;;;;;;;;;;5009927;28;20507;-90
2023/10/18 12:09:25;;;;;;;5.95;2.80;;;;;;;;;;5034837;28;20083;-91
2023/10/18 12:11:44;;;;;;;8.00;3.22;;;;;;;;;;5034900;28;20036;-90
2023/10/18 12:14:10;;;;;;;6.28;3.33;;;;;;;;;;5036774;28;20042;-90
2023/10/18 12:16:36;;;;;;;11.38;3.92;;;;;;;;;;5019481;28;20029;-90
2023/10/18 12:19:03;;;;;;;41.50;9.50;;;;;;;;;;5015062;28;20025;-89
2023/10/18 12:21:31;;;;;;;13.98;6.28;;;;;;;;;;5039241;28;20029;-90
2023/10/18 12:23:58;;;;;;;8.65;4.18;;;;;;;;;;5020059;28;20033;-90
2023/10/18 12:26:27;;;;;;;9.57;4.40;;;;;;;;;;5024969;28;20486;-90
2023/10/18 12:28:56;;;;;;;45.55;11.40;;;;;;;;;;5042594;28;20025;-90
2023/10/18 12:31:29;;;;;;;8.13;4.15;;;;;;;;;;5019521;28;20047;-89
2023/10/18 12:34:02;;;;;;;4.75;3.15;;;;;;;;;;5027518;28;20057;-89
2023/10/18 12:36:38;;;;;;;11.23;4.35;;;;;;;;;;5048235;28;20033;-90
2023/10/18 12:39:12;;;;;;;13.38;3.85;;;;;;;;;;5029571;28;20025;-90
2023/10/18 12:41:41;;;;;;;6.82;3.15;;;;;;;;;;5039457;28;20025;-89
2023/10/18 12:44:20;;;;;;;6.03;4.20;;;;;;;;;;5027621;28;20033;-90
2023/10/18 12:46:50;;;;;;;4.25;2.72;;;;;;;;;;5017014;28;20407;-89
2023/10/18 12:49:22;;;;;;;7.82;3.90;;;;;;;;;;5037249;28;20100;-90
2023/10/18 12:51:57;;;;;;;5.38;3.10;;;;;;;;;;5037708;28;20060;-91
2023/10/18 12:54:36;;;;;;;7.80;5.45;;;;;;;;;;5038151;28;20542;-90
2023/10/18 12:57:17;;;;;;;6.15;3.78;;;;;;;;;;5056753;28;20029;-90
2023/10/18 13:05:11;;;;;;;5.05;2.42;;;;;;;;;;5041515;28;20028;-90
2023/10/18 13:07:37;;;;;;;;;;;;;;;;;;5065352;28;20032;-90
2023/10/18 13:10:13;;;;;;;3.85;1.98;;;;;;;;;;5070900;28;19908;-90
2023/10/18 13:12:53;;;;;;;4.68;2.67;;;;;;;;;;5009604;28;20084;-89
2023/10/18 13:15:22;;;;;;;6.32;2.67;;;;;;;;;;5022784;28;20048;-88
2023/10/18 13:17:48;;;;;;;2.38;1.80;;;;;;;;;;5042518;28;20095;-89
2023/10/18 13:20:24;;;;;;;5.72;2.33;;;;;;;;;;5051277;28;20041;-89
2023/10/18 13:22:55;;;;;;;4.30;2.80;;;;;;;;;;5042621;28;20048;-89
2023/10/18 13:25:25;;;;;;;3.22;2.53;;;;;;;;;;5051318;28;20025;-90
2023/10/18 13:27:54;;;;;;;6.32;2.83;;;;;;;;;;5024081;28;20021;-89
2023/10/18 13:30:32;;;;;;;3.15;2.17;;;;;;;;;;5029408;28;20478;-91
2023/10/18 13:33:06;;;;;;;5.47;2.72;;;;;;;;;;5016593;28;20521;-90
2023/10/18 13:35:34;;;;;;;3.65;2.40;;;;;;;;;;5047511;28;20021;-90
2023/10/18 13:38:03;;;;;;;3.22;2.03;;;;;;;;;;5035460;28;20021;-89
2023/10/18 13:40:29;;;;;;;5.53;3.50;;;;;;;;;;5036743;28;20034;-89
2023/10/18 13:42:55;;;;;;;2.45;1.90;;;;;;;;;;5017748;28;20478;-89
2023/10/18 13:45:27;;;;;;;4.32;3.40;;;;;;;;;;5017528;28;20176;-89
2023/10/18 13:47:53;;;;;;;7.72;5.40;;;;;;;;;;5035546;28;20036;-89
2023/10/18 13:50:19;;;;;;;4.13;2.50;;;;;;;;;;5042459;28;20036;-88
2023/10/18 13:52:50;;;;;;;6.50;3.20;;;;;;;;;;5055585;28;20025;-89
2023/10/18 13:55:18;;;;;;;3.78;2.05;;;;;;;;;;5038320;28;20022;-88
2023/10/18 13:57:45;;;;;;;3.10;2.10;;;;;;;;;;5035955;28;20085;-90
2023/10/18 14:00:14;;;;;;;2.92;2.40;;;;;;;;;;5017538;28;20394;-87
2023/10/18 14:02:41;;;;;;;3.88;2.20;;;;;;;;;;5045260;28;20378;-89
2023/10/18 14:05:07;;;;;;;3.10;2.50;;;;;;;;;;5042281;28;20040;-91
2023/10/18 14:07:37;;;;;;;4.77;3.10;;;;;;;;;;5022905;28;20029;-90
2023/10/18 14:10:19;;;;;;;4.45;2.65;;;;;;;;;;5035748;28;20080;-90
2023/10/18 14:12:49;;;;;;;5.20;3.13;;;;;;;;;;5022797;28;20025;-91
2023/10/18 14:15:19;;;;;;;6.38;3.15;;;;;;;;;;5038287;28;20081;-90
2023/10/18 14:17:46;;;;;;;4.47;2.70;;;;;;;;;;5040470;28;20018;-90
2023/10/18 14:20:13;;;;;;;4.35;2.85;;;;;;;;;;5020901;28;20045;-89
2023/10/18 14:22:40;;;;;;;4.43;2.55;;;;;;;;;;5034749;28;20041;-91
2023/10/18 14:25:13;;;;;;;4.72;1.63;;;;;;;;;;5018048;28;20095;-89
2023/10/18 14:27:42;;;;;;;5.85;3.78;;;;;;;;;;4999598;28;20030;-90
2023/10/18 14:30:12;;;;;;;2.58;1.70;;;;;;;;;;5003301;28;20053;-89
2023/10/18 14:32:44;;;;;;;2.45;1.92;;;;;;;;;;5034364;28;20076;-88
2023/10/18 14:35:12;;;;;;;2.70;1.95;;;;;;;;;;5003865;28;20478;-91
2023/10/18 14:37:41;;;;;;;3.50;2.28;;;;;;;;;;5025546;28;20601;-90
2023/10/18 14:40:10;;;;;;;4.70;1.92;;;;;;;;;;5002249;28;20120;-91
2023/10/18 14:42:37;;;;;;;6.68;2.95;;;;;;;;;;5046439;28;20071;-90
2023/10/18 14:45:03;;;;;;;7.43;2.95;;;;;;;;;;5021151;28;20029;-91
2023/10/18 14:47:32;;;;;;;2.80;2.38;;;;;;;;;;5037051;28;20059;-91
2023/10/18 14:49:59;;;;;;;3.85;2.50;;;;;;;;;;5020168;28;20051;-90
2023/10/18 14:52:26;;;;;;;5.15;3.28;;;;;;;;;;5036608;28;20017;-89
2023/10/18 14:54:53;;;;;;;6.10;2.88;;;;;;;;;;5034777;28;20477;-90
2023/10/18 14:57:23;;;;;;;4.57;3.13;;;;;;;;;;5052869;28;20036;-91
2023/10/18 14:59:50;;;;;;;3.65;3.03;;;;;;;;;;5036113;28;20144;-90
2023/10/18 15:02:17;;;;;;;3.30;3.00;;;;;;;;;;5037580;28;20018;-90
2023/10/18 15:04:43;;;;;;;5.25;2.90;;;;;;;;;;5045813;28;20030;-90
2023/10/18 15:07:12;;;;;;;7.70;3.73;;;;;;;;;;5056603;28;20108;-91
2023/10/18 15:09:41;;;;;;;5.70;3.60;;;;;;;;;;5052912;28;20024;-92
2023/10/18 15:12:08;;;;;;;6.68;4.43;;;;;;;;;;5054958;28;20014;-89
2023/10/18 15:14:34;;;;;;;7.95;4.72;;;;;;;;;;5052860;28;20053;-92
2023/10/18 15:17:01;;;;;;;6.00;4.10;;;;;;;;;;5050828;28;20540;-91
2023/10/18 15:19:28;;;;;;;5.25;4.07;;;;;;;;;;5024144;28;20038;-92
2023/10/18 15:21:54;;;;;;;6.05;4.60;;;;;;;;;;5006359;28;20455;-91
2023/10/18 15:24:22;;;;;;;6.73;4.70;;;;;;;;;;5014863;28;20097;-90
2023/10/18 15:26:48;;;;;;;;;;;;;;;;;;5003777;28;20026;-90
2023/10/18 15:29:17;;;;;;;5.68;3.28;;;;;;;;;;5027530;28;19912;-91
2023/10/18 15:31:44;;;;;;;7.95;4.72;;;;;;;;;;5048926;28;20014;-90
2023/10/18 15:34:13;;;;;;;8.05;4.90;;;;;;;;;;5017518;28;20060;-89
2023/10/18 15:36:41;;;;;;;8.23;5.43;;;;;;;;;;5044372;28;20018;-89
2023/10/18 15:39:10;;;;;;;10.13;6.00;;;;;;;;;;5014875;28;20033;-89
2023/10/18 15:41:37;;;;;;;8.00;6.28;;;;;;;;;;5030672;28;20025;-91
2023/10/18 15:44:04;;;;;;;5.93;4.47;;;;;;;;;;5017465;28;20028;-89
2023/10/18 15:46:33;;;;;;;7.60;5.75;;;;;;;;;;5019235;28;20061;-89
2023/10/18 15:48:59;;;;;;;7.00;5.72;;;;;;;;;;5047945;28;20076;-90
2023/10/18 15:51:26;;;;;;;7.07;5.47;;;;;;;;;;5029159;28;20113;-90
2023/10/18 15:53:53;;;;;;;5.60;5.10;;;;;;;;;;5039952;28;20014;-90
2023/10/18 15:56:21;;;;;;;11.32;5.75;;;;;;;;;;5023889;28;20518;-88
2023/10/18 15:58:47;;;;;;;;;;;;;;;;;;5007928;28;20033;-89
2023/10/18 16:01:18;;;;;;;6.38;5.30;;;;;;;;;;5018764;28;19914;-89
2023/10/18 16:03:45;;;;;;;7.05;6.18;;;;;;;;;;5037577;28;20027;-89
2023/10/18 16:06:14;;;;;;;6.60;5.32;;;;;;;;;;5023435;28;20017;-90
2023/10/18 16:08:40;;;;;;;9.20;6.43;;;;;;;;;;5025112;28;20060;-89
2023/10/18 16:11:07;;;;;;;5.30;4.80;;;;;;;;;;5049244;28;20032;-88
2023/10/18 16:13:34;;;;;;;8.50;7.25;;;;;;;;;;5066980;28;20028;-88
2023/10/18 16:16:09;;;;;;;8.05;6.15;;;;;;;;;;5041715;28;20040;-90
2023/10/18 16:18:38;;;;;;;7.32;5.35;;;;;;;;;;4987782;28;20027;-92